createdAt,value
2022-10-02T00:00:02.232Z,83.88
2022-10-02T00:02:36.199Z,84.18
2022-10-02T00:05:18.320Z,84.50
2022-10-02T00:07:50.580Z,85.14
2022-10-02T00:10:24.077Z,84.91
2022-10-02T00:13:00.133Z,84.73
2022-10-02T00:15:30.994Z,84.86
2022-10-02T00:18:06.239Z,84.92
2022-10-02T00:20:46.680Z,84.97
2022-10-02T00:23:22.875Z,85.02
2022-10-02T00:25:58.351Z,85.08
2022-10-02T00:28:34.973Z,85.49
2022-10-02T00:31:22.449Z,85.58
2022-10-02T00:34:00.251Z,85.49
2022-10-02T00:36:40.662Z,85.44
2022-10-02T00:39:22.306Z,85.61
2022-10-02T00:42:28.156Z,85.87
2022-10-02T00:45:21.262Z,86.09
2022-10-02T00:47:56.690Z,86.19
2022-10-02T00:50:36.437Z,85.78
2022-10-02T00:53:16.755Z,84.22
2022-10-02T00:56:10.134Z,84.00
2022-10-02T00:59:05.487Z,84.32
2022-10-02T01:01:41.395Z,84.99
2022-10-02T01:04:14.833Z,84.19
2022-10-02T01:06:43.344Z,84.46
2022-10-02T01:09:13.151Z,84.62
2022-10-02T01:11:44.395Z,85.36
2022-10-02T01:14:13.762Z,84.87
2022-10-02T01:16:43.343Z,84.91
2022-10-02T01:19:23.988Z,85.08
2022-10-02T01:21:56.478Z,84.84
2022-10-02T01:24:38.602Z,85.14
2022-10-02T01:27:08.936Z,85.58
2022-10-02T01:29:38.374Z,86.12
2022-10-02T01:32:09.051Z,86.27
2022-10-02T01:34:38.351Z,86.39
2022-10-02T01:37:07.142Z,86.91
2022-10-02T01:39:36.524Z,87.29
2022-10-02T01:42:04.879Z,87.04
2022-10-02T01:44:35.798Z,86.88
2022-10-02T01:47:10.699Z,86.92
2022-10-02T01:49:59.209Z,86.58
2022-10-02T01:52:40.330Z,86.42
2022-10-02T01:55:27.179Z,86.23
2022-10-02T01:58:18.867Z,86.17
2022-10-02T02:01:02.815Z,85.72
2022-10-02T02:03:43.965Z,85.85
2022-10-02T02:06:20.353Z,85.63
2022-10-02T02:09:01.572Z,86.00
2022-10-02T02:11:39.750Z,85.85
2022-10-02T02:14:13.714Z,86.03
2022-10-02T02:16:45.720Z,85.74
2022-10-02T02:19:19.815Z,85.92
2022-10-02T02:21:55.386Z,86.11
2022-10-02T02:24:26.937Z,85.93
2022-10-02T02:27:01.631Z,86.03
2022-10-02T02:29:32.615Z,85.91
2022-10-02T02:32:09.684Z,86.00
2022-10-02T02:34:44.568Z,86.32
2022-10-02T02:37:19.073Z,86.53
2022-10-02T02:39:52.506Z,86.64
2022-10-02T02:42:26.013Z,86.97
2022-10-02T02:44:59.524Z,86.95
2022-10-02T02:47:37.600Z,86.85
2022-10-02T02:50:10.956Z,86.42
2022-10-02T02:52:47.060Z,86.74
2022-10-02T02:55:21.380Z,86.48
2022-10-02T02:57:56.390Z,86.52
2022-10-02T03:00:28.339Z,86.59
2022-10-02T03:02:58.769Z,86.73
2022-10-02T03:05:27.730Z,85.92
2022-10-02T03:08:02.718Z,86.24
2022-10-02T03:10:45.588Z,85.91
2022-10-02T03:13:28.599Z,86.09
2022-10-02T03:16:12.113Z,85.86
2022-10-02T03:18:54.714Z,85.68
2022-10-02T03:21:29.808Z,85.04
2022-10-02T03:24:07.176Z,85.13
2022-10-02T03:26:41.189Z,84.90
2022-10-02T03:29:15.791Z,84.38
2022-10-02T03:31:45.006Z,85.13
2022-10-02T03:34:16.458Z,85.24
2022-10-02T03:36:47.824Z,85.28
2022-10-02T03:39:25.224Z,86.30
2022-10-02T03:41:57.786Z,85.17
2022-10-02T03:44:33.173Z,84.99
2022-10-02T03:47:03.356Z,85.49
2022-10-02T03:49:34.801Z,85.31
2022-10-02T03:52:04.130Z,85.06
2022-10-02T03:54:37.245Z,85.18
2022-10-02T03:57:06.732Z,85.12
2022-10-02T03:59:44.772Z,85.32
2022-10-02T04:02:28.433Z,85.31
2022-10-02T04:05:04.340Z,85.55
2022-10-02T04:07:38.495Z,85.57
2022-10-02T04:10:29.187Z,85.07
2022-10-02T04:13:06.386Z,85.08
2022-10-02T04:15:49.226Z,85.28
2022-10-02T04:18:28.597Z,84.85
2022-10-02T04:21:08.177Z,84.99
2022-10-02T04:23:43.698Z,85.13
2022-10-02T04:26:21.021Z,84.76
2022-10-02T04:28:56.560Z,85.45
2022-10-02T04:31:30.858Z,85.75
2022-10-02T04:34:05.489Z,86.63
2022-10-02T04:36:45.742Z,87.04
2022-10-02T04:39:31.120Z,86.70
2022-10-02T04:42:15.422Z,86.79
2022-10-02T04:45:08.672Z,87.08
2022-10-02T04:47:57.635Z,87.56
2022-10-02T04:50:50.234Z,87.59
2022-10-02T04:53:36.834Z,87.77
2022-10-02T04:56:24.318Z,88.18
2022-10-02T04:59:13.012Z,88.40
2022-10-02T05:01:56.630Z,88.43
2022-10-02T05:05:11.964Z,88.47
2022-10-02T05:08:10.341Z,87.66
2022-10-02T05:11:01.177Z,88.48
2022-10-02T05:13:45.324Z,87.99
2022-10-02T05:16:31.014Z,88.24
2022-10-02T05:19:16.707Z,88.30
2022-10-02T05:22:04.344Z,88.36
2022-10-02T05:24:45.486Z,89.10
2022-10-02T05:27:46.121Z,88.88
2022-10-02T05:30:17.192Z,88.88
2022-10-02T05:33:12.667Z,88.77
2022-10-02T05:35:56.250Z,88.92
2022-10-02T05:38:41.600Z,89.00
2022-10-02T05:41:17.712Z,89.27
2022-10-02T05:43:50.716Z,88.74
2022-10-02T05:46:24.907Z,88.59
2022-10-02T05:48:59.634Z,88.92
2022-10-02T05:51:37.210Z,88.11
2022-10-02T05:54:11.901Z,88.13
2022-10-02T05:56:45.221Z,87.77
2022-10-02T05:59:24.005Z,87.75
2022-10-02T06:01:55.307Z,87.55
2022-10-02T06:04:34.973Z,87.09
2022-10-02T06:07:10.899Z,86.75
2022-10-02T06:09:46.963Z,87.11
2022-10-02T06:12:26.865Z,85.77
2022-10-02T06:15:06.396Z,85.20
2022-10-02T06:17:41.963Z,85.11
2022-10-02T06:20:19.116Z,84.43
2022-10-02T06:22:52.627Z,84.86
2022-10-02T06:25:25.743Z,84.51
2022-10-02T06:27:59.056Z,83.90
2022-10-02T06:30:33.101Z,84.51
2022-10-02T06:33:13.735Z,84.13
2022-10-02T06:35:55.604Z,84.30
2022-10-02T06:38:38.764Z,83.73
2022-10-02T06:41:14.562Z,83.14
2022-10-02T06:44:05.170Z,83.65
2022-10-02T06:46:43.285Z,83.18
2022-10-02T06:49:25.064Z,82.94
2022-10-02T06:52:05.312Z,82.77
2022-10-02T06:54:51.007Z,84.48
2022-10-02T06:57:33.651Z,83.53
2022-10-02T07:00:09.686Z,83.76
2022-10-02T07:03:07.116Z,82.03
2022-10-02T07:06:01.944Z,81.83
2022-10-02T07:08:44.241Z,81.17
2022-10-02T07:11:22.438Z,81.01
2022-10-02T07:14:08.117Z,81.21
2022-10-02T07:17:01.299Z,80.47
2022-10-02T07:19:53.572Z,80.36
2022-10-02T07:22:43.890Z,80.08
2022-10-02T07:25:40.979Z,78.79
2022-10-02T07:28:18.312Z,79.12
2022-10-02T07:30:56.439Z,79.22
2022-10-02T07:33:37.840Z,79.52
2022-10-02T07:36:14.550Z,80.57
2022-10-02T07:39:05.472Z,80.17
2022-10-02T07:42:11.495Z,78.51
2022-10-02T07:44:57.869Z,78.07
2022-10-02T07:47:56.405Z,77.60
2022-10-02T07:50:35.131Z,79.04
2022-10-02T07:53:14.333Z,78.93
2022-10-02T07:55:49.764Z,79.25
2022-10-02T07:58:23.972Z,77.72
2022-10-02T08:00:56.050Z,77.62
2022-10-02T08:03:28.105Z,76.31
2022-10-02T08:05:57.913Z,75.84
2022-10-02T08:08:31.762Z,76.22
2022-10-02T08:11:07.591Z,76.61
2022-10-02T08:13:40.064Z,76.51
2022-10-02T08:16:10.986Z,76.24
2022-10-02T08:18:43.811Z,76.50
2022-10-02T08:21:16.780Z,75.74
2022-10-02T08:23:52.234Z,76.33
2022-10-02T08:26:31.789Z,76.04
2022-10-02T08:29:09.463Z,73.86
2022-10-02T08:31:39.322Z,73.67
2022-10-02T08:34:15.186Z,72.68
2022-10-02T08:37:16.525Z,72.50
2022-10-02T08:40:15.385Z,74.17
2022-10-02T08:43:34.175Z,73.09
2022-10-02T08:46:50.143Z,71.35
2022-10-02T08:49:48.026Z,70.68
2022-10-02T08:52:36.351Z,70.89
2022-10-02T08:55:50.843Z,71.29
2022-10-02T08:58:50.607Z,71.48
2022-10-02T09:02:02.024Z,69.91
2022-10-02T09:05:04.940Z,69.46
2022-10-02T09:08:09.000Z,69.16
2022-10-02T09:11:05.535Z,68.12
2022-10-02T09:14:12.875Z,68.19
2022-10-02T09:17:01.432Z,68.68
2022-10-02T09:19:42.740Z,68.27
2022-10-02T09:22:38.778Z,67.86
2022-10-02T09:25:25.327Z,69.13
2022-10-02T09:28:32.075Z,68.90
2022-10-02T09:31:42.549Z,67.41
2022-10-02T09:34:52.207Z,67.03
2022-10-02T09:38:05.626Z,68.04
2022-10-02T09:41:15.217Z,66.53
2022-10-02T09:44:08.286Z,65.05
2022-10-02T09:47:08.905Z,64.41
2022-10-02T09:50:03.415Z,63.77
2022-10-02T09:53:15.741Z,64.51
2022-10-02T09:56:16.325Z,63.67
2022-10-02T09:59:13.576Z,63.81
2022-10-02T10:02:02.211Z,62.90
2022-10-02T10:05:07.335Z,63.43
2022-10-02T10:08:11.840Z,62.09
2022-10-02T10:10:54.489Z,63.73
2022-10-02T10:13:44.665Z,62.34
2022-10-02T10:16:54.294Z,61.96
2022-10-02T10:19:55.237Z,61.66
2022-10-02T10:22:52.270Z,60.83
2022-10-02T10:25:38.487Z,62.10
2022-10-02T10:28:42.005Z,60.35
2022-10-02T10:31:34.673Z,60.44
2022-10-02T10:34:37.040Z,60.40
2022-10-02T10:37:25.273Z,61.24
2022-10-02T10:40:24.233Z,60.18
2022-10-02T10:43:21.197Z,59.42
2022-10-02T10:46:19.864Z,58.76
2022-10-02T10:49:04.910Z,58.85
2022-10-02T10:51:35.991Z,58.94
2022-10-02T10:54:48.808Z,58.89
2022-10-02T10:57:35.402Z,59.25
2022-10-02T11:00:18.018Z,59.04
2022-10-02T11:03:10.562Z,58.50
2022-10-02T11:06:12.692Z,58.92
2022-10-02T11:09:16.641Z,59.02
2022-10-02T11:12:01.340Z,58.31
2022-10-02T11:14:45.562Z,58.41
2022-10-02T11:17:44.592Z,58.55
2022-10-02T11:20:36.852Z,57.60
2022-10-02T11:23:46.162Z,57.40
2022-10-02T11:26:38.951Z,56.54
2022-10-02T11:29:44.938Z,57.50
2022-10-02T11:32:39.327Z,56.62
2022-10-02T11:35:33.544Z,55.95
2022-10-02T11:38:22.887Z,55.76
2022-10-02T11:41:07.863Z,56.93
2022-10-02T11:44:16.964Z,57.02
2022-10-02T11:47:07.655Z,58.92
2022-10-02T11:50:00.126Z,57.50
2022-10-02T11:53:00.948Z,57.92
2022-10-02T11:55:52.202Z,57.86
2022-10-02T11:58:28.028Z,57.74
2022-10-02T12:01:06.491Z,58.07
2022-10-02T12:03:48.952Z,57.26
2022-10-02T12:06:30.543Z,57.57
2022-10-02T12:09:08.575Z,58.75
2022-10-02T12:11:42.155Z,56.63
2022-10-02T12:14:26.737Z,55.57
2022-10-02T12:17:08.257Z,54.40
2022-10-02T12:20:14.118Z,53.95
2022-10-02T12:23:08.227Z,55.11
2022-10-02T12:26:02.315Z,55.02
2022-10-02T12:28:38.478Z,56.71
2022-10-02T12:31:17.315Z,55.55
2022-10-02T12:33:56.477Z,55.24
2022-10-02T12:36:45.964Z,56.43
2022-10-02T12:39:27.536Z,56.04
2022-10-02T12:42:15.739Z,57.09
2022-10-02T12:45:01.686Z,56.65
2022-10-02T12:47:58.060Z,57.69
2022-10-02T12:50:41.001Z,58.12
2022-10-02T12:53:39.752Z,58.44
2022-10-02T12:57:04.928Z,57.31
2022-10-02T12:59:42.932Z,59.23
2022-10-02T13:03:01.353Z,60.28
2022-10-02T13:05:52.331Z,61.79
2022-10-02T13:08:48.438Z,63.43
2022-10-02T13:11:29.024Z,64.38
2022-10-02T13:14:34.603Z,64.29
2022-10-02T13:17:18.940Z,65.26
2022-10-02T13:20:03.809Z,65.04
2022-10-02T13:22:43.119Z,63.58
2022-10-02T13:25:35.733Z,65.18
2022-10-02T13:28:22.647Z,65.27
2022-10-02T13:31:05.638Z,66.26
2022-10-02T13:33:54.256Z,66.59
2022-10-02T13:36:43.106Z,67.19
2022-10-02T13:39:34.188Z,67.65
2022-10-02T13:42:19.308Z,68.12
2022-10-02T13:44:58.633Z,68.30
2022-10-02T13:47:47.791Z,68.64
2022-10-02T13:50:28.612Z,68.53
2022-10-02T13:53:21.215Z,68.64
2022-10-02T13:55:54.806Z,69.05
2022-10-02T13:58:57.346Z,69.05
2022-10-02T14:01:41.666Z,68.56
2022-10-02T14:04:28.087Z,68.55
2022-10-02T14:07:05.427Z,69.34
2022-10-02T14:09:56.737Z,69.89
2022-10-02T14:12:32.049Z,69.67
2022-10-02T14:15:15.575Z,69.83
2022-10-02T14:18:12.249Z,70.15
2022-10-02T14:21:04.727Z,70.61
2022-10-02T14:23:50.998Z,70.37
2022-10-02T14:26:29.173Z,71.86
2022-10-02T14:29:32.359Z,71.17
2022-10-02T14:32:27.947Z,71.57
2022-10-02T14:35:12.154Z,71.58
2022-10-02T14:38:27.493Z,71.66
2022-10-02T14:40:59.326Z,72.52
2022-10-02T14:43:51.375Z,71.71
2022-10-02T14:46:54.468Z,70.30
2022-10-02T14:49:59.613Z,70.56
2022-10-02T14:52:51.118Z,71.06
2022-10-02T14:55:34.782Z,71.23
2022-10-02T14:58:23.604Z,70.92
2022-10-02T15:01:12.323Z,71.53
2022-10-02T15:04:14.440Z,71.62
2022-10-02T15:07:02.668Z,71.24
2022-10-02T15:09:41.519Z,71.52
2022-10-02T15:12:19.883Z,72.10
2022-10-02T15:15:14.389Z,72.00
2022-10-02T15:17:57.361Z,72.28
2022-10-02T15:20:34.437Z,72.52
2022-10-02T15:23:08.359Z,72.78
2022-10-02T15:25:58.162Z,73.10
2022-10-02T15:28:50.285Z,73.25
2022-10-02T15:31:27.694Z,74.29
2022-10-02T15:34:07.833Z,74.17
2022-10-02T15:36:56.259Z,74.51
2022-10-02T15:39:48.727Z,75.10
2022-10-02T15:42:50.107Z,75.03
2022-10-02T15:45:44.839Z,75.97
2022-10-02T15:48:37.727Z,76.02
2022-10-02T15:51:21.098Z,76.31
2022-10-02T15:54:00.251Z,76.40
2022-10-02T15:57:11.260Z,76.74
2022-10-02T15:59:56.603Z,76.41
2022-10-02T16:03:14.522Z,76.76
2022-10-02T16:06:03.729Z,77.54
2022-10-02T16:08:55.957Z,77.68
2022-10-02T16:11:59.379Z,78.04
2022-10-02T16:14:44.115Z,78.17
2022-10-02T16:17:39.908Z,78.64
2022-10-02T16:20:30.632Z,78.77
2022-10-02T16:23:17.194Z,78.95
2022-10-02T16:26:01.446Z,79.25
2022-10-02T16:28:48.595Z,79.14
2022-10-02T16:31:42.159Z,79.78
2022-10-02T16:34:26.454Z,79.69
2022-10-02T16:37:02.576Z,80.23
2022-10-02T16:39:54.304Z,80.36
2022-10-02T16:42:34.422Z,80.57
2022-10-02T16:45:19.206Z,79.88
2022-10-02T16:47:54.376Z,80.13
2022-10-02T16:50:28.235Z,80.18
2022-10-02T16:53:08.266Z,80.20
2022-10-02T16:55:41.214Z,81.05
2022-10-02T16:58:24.810Z,81.61
2022-10-02T17:00:58.879Z,82.08
2022-10-02T17:03:33.714Z,81.24
2022-10-02T17:06:11.566Z,81.38
2022-10-02T17:08:48.006Z,80.98
2022-10-02T17:11:21.619Z,81.18
2022-10-02T17:14:03.027Z,81.34
2022-10-02T17:16:40.877Z,82.05
2022-10-02T17:19:23.241Z,80.88
2022-10-02T17:21:57.649Z,82.56
2022-10-02T17:24:38.101Z,81.05
2022-10-02T17:27:15.416Z,81.98
2022-10-02T17:29:54.038Z,80.89
2022-10-02T17:32:36.856Z,80.99
2022-10-02T17:35:16.489Z,80.85
2022-10-02T17:38:05.158Z,80.60
2022-10-02T17:40:41.968Z,81.22
2022-10-02T17:43:21.581Z,81.86
2022-10-02T17:45:58.903Z,81.67
2022-10-02T17:48:38.797Z,81.95
2022-10-02T17:51:47.569Z,80.88
2022-10-02T17:54:42.529Z,81.35
2022-10-02T17:57:22.941Z,81.76
2022-10-02T18:00:10.242Z,82.32
2022-10-02T18:03:10.337Z,82.69
2022-10-02T18:06:00.694Z,83.10
2022-10-02T18:08:58.740Z,83.35
2022-10-02T18:11:44.941Z,83.51
2022-10-02T18:14:26.897Z,83.55
2022-10-02T18:17:06.565Z,83.56
2022-10-02T18:19:52.550Z,83.56
2022-10-02T18:22:33.125Z,84.55
2022-10-02T18:25:30.095Z,84.48
2022-10-02T18:28:13.565Z,85.19
2022-10-02T18:30:54.234Z,84.05
2022-10-02T18:33:42.328Z,83.94
2022-10-02T18:36:25.269Z,83.77
2022-10-02T18:39:01.204Z,81.86
2022-10-02T18:41:50.369Z,81.15
2022-10-02T18:44:46.003Z,80.96
2022-10-02T18:47:34.303Z,81.33
2022-10-02T18:50:24.681Z,80.47
2022-10-02T18:53:16.504Z,80.17
2022-10-02T18:56:03.259Z,80.54
2022-10-02T18:58:44.696Z,80.07
2022-10-02T19:01:31.079Z,81.01
2022-10-02T19:04:15.847Z,80.68
2022-10-02T19:06:54.209Z,80.29
2022-10-02T19:09:27.388Z,80.86
2022-10-02T19:11:58.978Z,81.18
2022-10-02T19:14:35.221Z,81.02
2022-10-02T19:17:07.811Z,80.80
2022-10-02T19:19:39.969Z,81.22
2022-10-02T19:22:11.275Z,81.46
2022-10-02T19:24:46.237Z,80.72
2022-10-02T19:27:23.200Z,80.45
2022-10-02T19:29:56.034Z,80.85
2022-10-02T19:32:27.402Z,80.20
2022-10-02T19:35:08.956Z,80.10
2022-10-02T19:37:43.813Z,79.83
2022-10-02T19:40:17.754Z,79.78
2022-10-02T19:42:51.697Z,79.75
2022-10-02T19:45:27.540Z,79.94
2022-10-02T19:47:59.849Z,79.73
2022-10-02T19:50:40.001Z,79.91
2022-10-02T19:53:20.122Z,79.97
2022-10-02T19:55:53.052Z,80.01
2022-10-02T19:58:24.392Z,80.40
2022-10-02T20:00:54.424Z,80.37
2022-10-02T20:03:25.362Z,80.14
2022-10-02T20:06:00.860Z,80.23
2022-10-02T20:08:34.249Z,80.75
2022-10-02T20:11:11.804Z,80.86
2022-10-02T20:13:43.340Z,81.22
2022-10-02T20:16:42.237Z,80.97
2022-10-02T20:19:18.975Z,80.97
2022-10-02T20:21:52.891Z,81.39
2022-10-02T20:24:27.913Z,81.80
2022-10-02T20:27:02.593Z,81.86
2022-10-02T20:29:38.026Z,82.26
2022-10-02T20:32:13.326Z,82.13
2022-10-02T20:34:45.061Z,82.23
2022-10-02T20:37:19.529Z,82.22
2022-10-02T20:39:55.192Z,82.58
2022-10-02T20:42:31.168Z,82.96
2022-10-02T20:44:59.927Z,82.88
2022-10-02T20:48:03.193Z,83.17
2022-10-02T20:50:42.921Z,82.91
2022-10-02T20:53:49.832Z,82.84
2022-10-02T20:56:39.462Z,83.14
2022-10-02T20:59:39.495Z,82.88
2022-10-02T21:02:26.459Z,82.83
2022-10-02T21:05:32.496Z,82.86
2022-10-02T21:08:34.635Z,83.39
2022-10-02T21:11:17.911Z,83.02
2022-10-02T21:14:31.107Z,82.89
2022-10-02T21:17:26.373Z,82.90
2022-10-02T21:20:50.315Z,82.85
2022-10-02T21:23:52.382Z,83.27
2022-10-02T21:26:53.010Z,83.27
2022-10-02T21:29:55.553Z,83.32
2022-10-02T21:32:32.514Z,83.38
2022-10-02T21:35:17.081Z,83.54
2022-10-02T21:38:01.379Z,83.85
2022-10-02T21:41:08.577Z,83.92
2022-10-02T21:44:10.365Z,84.05
2022-10-02T21:47:13.635Z,84.40
2022-10-02T21:50:18.746Z,84.57
2022-10-02T21:53:49.980Z,84.76
2022-10-02T21:57:05.783Z,84.57
2022-10-02T22:00:03.644Z,84.72
2022-10-02T22:03:18.760Z,84.95
2022-10-02T22:06:23.770Z,84.99
2022-10-02T22:09:15.084Z,85.45
2022-10-02T22:11:57.554Z,85.40
2022-10-02T22:14:37.798Z,85.57
2022-10-02T22:17:16.568Z,85.63
2022-10-02T22:20:17.020Z,85.90
2022-10-02T22:22:59.394Z,86.05
2022-10-02T22:25:45.291Z,86.16
2022-10-02T22:28:27.297Z,86.14
2022-10-02T22:31:23.980Z,86.55
2022-10-02T22:34:06.966Z,86.59
2022-10-02T22:36:53.318Z,86.66
2022-10-02T22:39:31.131Z,86.40
2022-10-02T22:42:09.538Z,86.31
2022-10-02T22:44:45.618Z,86.20
2022-10-02T22:47:30.421Z,86.36
2022-10-02T22:50:03.431Z,85.96
2022-10-02T22:52:42.836Z,85.90
2022-10-02T22:55:20.025Z,85.89
2022-10-02T22:58:05.484Z,86.12
2022-10-02T23:00:51.171Z,86.06
2022-10-02T23:03:27.085Z,86.00
2022-10-02T23:06:04.697Z,85.71
2022-10-02T23:08:42.375Z,85.67
2022-10-02T23:11:18.153Z,85.78
2022-10-02T23:13:51.906Z,85.49
2022-10-02T23:16:28.363Z,85.41
2022-10-02T23:19:02.186Z,85.33
2022-10-02T23:21:45.721Z,85.04
2022-10-02T23:24:28.706Z,84.86
2022-10-02T23:27:10.369Z,84.66
2022-10-02T23:29:51.780Z,84.55
2022-10-02T23:32:27.201Z,84.49
2022-10-02T23:35:06.145Z,84.10
2022-10-02T23:37:42.105Z,84.06
2022-10-02T23:40:22.726Z,83.56
2022-10-02T23:42:56.145Z,84.33
2022-10-02T23:45:30.995Z,84.16
2022-10-02T23:48:03.974Z,84.02
2022-10-02T23:50:45.532Z,84.22
2022-10-02T23:53:41.694Z,83.71
2022-10-02T23:56:27.479Z,84.23
2022-10-02T23:59:15.051Z,83.63
